Criccieth, United Kingdom
Current Conditions -  °F | °C
As of 3:50 AM on Wednesday 28 Jan 2015 (Local Time) from EGOV Reporting Station
Broken Clouds Broken Clouds  
Wind Chill:   Ceiling: 2200
Heat Index:   Visibility: 6mi
Dew Point:   Wind: 26mph
Humidity: 93%   Direction: 200°SSW
Pressure: 29.68"   Gusts: NA
Location:  52.92°N, 4.23°W
Report Text: EGOV 280350Z 20023KT 9999 FEW007 BKN022 09/08 Q1005 WHT
Loading
Personal Weather Stations






























Interactive Weather Map New forecast layout! Learn more

10-Day Weather Forecast

Advertisements
Track Severe Weather on mobile